Aérodrome :
LOGIN :

S'inscrire | Disclaimer

   EN    FR    IT 

 










Légende :    VFR   VFR Marginal   IFR   IFR Intensif   IFR Très Intensif
Visi : 
Plafond : 
>= 8 km
>= 3000ft
5 à 8 km
1000 à 3000 ft
1500m à 5 km
500 à 1000 ft
800 à 1500m
200 à 500 ft
< 800m
< 200 ft
Symboles :   Orages  Brouillard  Fortes neiges  Fortes précipitations  Vent > 20 kt
SIGMETs :   Divers  Orages  Givrage  Turbulence  Onde Orograph.  Cendres Volcan.







- Altitude de l'aérodrome : 364 ft
- Code IATA : FRA


EDDF - Frankfurt Int.

DERNIER METAR :
  • 200120Z VRB02KT 9999 BCFG MIFG NSC 08/07 Q1020 TEMPO 4000

METARs EXPIRÉS :
  • 200050Z 31005KT 250V340 9999 BCFG MIFG NSC 08/08 Q1020 TEMPO 4000
  • 200020Z VRB03KT 9999 MIFG NSC 09/09 Q1020 TEMPO 2000 BCFG
  • 192350Z VRB02KT 9999 MIFG NSC 10/09 Q1020 TEMPO 2000 BCFG
  • 192320Z 21003KT 9999 FEW036 BKN085 11/10 Q1020 NOSIG
  • 192250Z 24004KT 9999 FEW036 BKN085 11/10 Q1020 NOSIG

TAF TAF EDDF
Valide du 20 à 00h jusqu'au 21 à 06h UTC


192300Z 2000/2106 22003KT 9999 FEW035
TEMPO 2001/2008 2000 BCFG
PROB30
TEMPO 2003/2007 0500 FG BKN001
PROB30
TEMPO 2012/2016 26008KT SHRA SCT025TCU
Pas de NOTAMs connus pour ce terrain.



MET'MAP, la Météo Aéronautique d'un coup d'oeil ! - Copyright ORBIFLY Décembre 2007 - Disclaimer

ORBIFLY MET'MAP TEAM :

Programmation & Développement : Alexandra Zaïnal
Conception & Développement : Baudouin d'Aumeries
Co-Programmation & Développement : Marc-Olivier Méhu
Soutien technique & logistique : Manuel Goepfert

Contact : metmap@orbifly.com




SOURCES & CREDITS :

   NOAA